createdAt,value
2022-10-06T00:01:19.259Z,86.28
2022-10-06T00:04:06.641Z,92.00
2022-10-06T00:07:07.539Z,73.32
2022-10-06T00:09:48.084Z,79.45
2022-10-06T00:12:35.528Z,69.55
2022-10-06T00:15:22.087Z,65.53
2022-10-06T00:17:49.508Z,65.05
2022-10-06T00:20:18.023Z,68.80
2022-10-06T00:22:47.865Z,73.07
2022-10-06T00:25:18.321Z,82.15
2022-10-06T00:27:47.580Z,83.50
2022-10-06T00:30:19.122Z,80.80
2022-10-06T00:33:01.024Z,86.40
2022-10-06T00:35:35.048Z,83.00
2022-10-06T00:38:26.076Z,87.93
2022-10-06T00:43:56.597Z,86.90
2022-10-06T00:46:49.215Z,87.72
2022-10-06T00:49:22.083Z,92.25
2022-10-06T00:52:00.111Z,90.75
2022-10-06T00:54:27.999Z,91.30
2022-10-06T00:56:55.786Z,93.60
2022-10-06T00:59:22.841Z,93.22
2022-10-06T01:02:01.949Z,85.70
2022-10-06T01:04:35.523Z,78.70
2022-10-06T01:07:03.248Z,67.45
2022-10-06T01:09:31.705Z,71.47
2022-10-06T01:12:21.568Z,69.55
2022-10-06T01:15:22.585Z,70.90
2022-10-06T01:18:13.812Z,72.25
2022-10-06T01:20:53.493Z,71.45
2022-10-06T01:23:21.178Z,71.03
2022-10-06T01:25:48.433Z,73.13
2022-10-06T01:28:25.373Z,72.72
2022-10-06T01:30:54.790Z,72.20
2022-10-06T01:33:24.073Z,78.97
2022-10-06T01:35:53.754Z,79.82
2022-10-06T01:38:21.948Z,77.10
2022-10-06T01:40:53.698Z,76.68
2022-10-06T01:43:21.559Z,77.60
2022-10-06T01:46:02.796Z,67.43
2022-10-06T01:51:37.276Z,71.60
2022-10-06T01:54:04.498Z,70.97
2022-10-06T01:56:31.483Z,65.78
2022-10-06T01:58:58.590Z,69.32
2022-10-06T02:01:26.204Z,69.45
2022-10-06T02:03:54.397Z,71.55
2022-10-06T02:06:21.540Z,74.10
2022-10-06T02:08:48.759Z,69.60
2022-10-06T02:11:18.373Z,69.40
2022-10-06T02:13:54.103Z,71.78
2022-10-06T02:16:47.573Z,74.30
2022-10-06T02:19:48.590Z,64.80
2022-10-06T02:22:29.130Z,70.82
2022-10-06T02:24:56.335Z,73.47
2022-10-06T02:27:23.286Z,69.63
2022-10-06T02:29:50.498Z,69.47
2022-10-06T02:32:17.376Z,68.07
2022-10-06T02:34:45.018Z,68.68
2022-10-06T02:37:12.794Z,68.53
2022-10-06T02:39:39.683Z,68.50
2022-10-06T02:42:08.356Z,69.82
2022-10-06T02:44:51.658Z,68.32
2022-10-06T02:47:52.728Z,65.78
2022-10-06T02:50:34.842Z,62.63
2022-10-06T02:53:02.608Z,67.00
2022-10-06T02:55:31.307Z,68.20
2022-10-06T02:58:00.254Z,69.70
2022-10-06T03:00:47.604Z,71.22
2022-10-06T03:03:47.473Z,66.93
2022-10-06T03:06:24.357Z,75.40
2022-10-06T03:09:00.871Z,70.18
2022-10-06T03:11:53.599Z,68.72
2022-10-06T03:14:49.446Z,68.00
2022-10-06T03:17:16.449Z,69.32
2022-10-06T03:19:49.635Z,68.45
2022-10-06T03:22:16.826Z,67.22
2022-10-06T03:24:50.163Z,68.03
2022-10-06T03:27:17.011Z,63.65
2022-10-06T03:29:43.908Z,63.35
2022-10-06T03:32:11.040Z,65.78
2022-10-06T03:34:38.599Z,65.55
2022-10-06T03:37:08.667Z,65.40
2022-10-06T03:39:55.641Z,65.80
2022-10-06T03:42:56.658Z,65.10
2022-10-06T03:45:57.666Z,66.28
2022-10-06T03:48:41.653Z,67.15
2022-10-06T03:51:12.885Z,65.20
2022-10-06T03:53:40.859Z,64.05
2022-10-06T03:56:34.646Z,71.55
2022-10-06T03:59:19.514Z,60.30
2022-10-06T04:01:48.728Z,63.30
2022-10-06T04:04:23.693Z,63.63
2022-10-06T04:06:55.035Z,61.38
2022-10-06T04:09:22.853Z,65.00
2022-10-06T04:12:10.685Z,61.20
2022-10-06T04:14:55.306Z,59.85
2022-10-06T04:17:24.922Z,62.70
2022-10-06T04:19:51.998Z,60.13
2022-10-06T04:22:19.353Z,58.90
2022-10-06T04:24:47.143Z,62.28
2022-10-06T04:27:29.739Z,59.55
2022-10-06T04:30:09.062Z,57.38
2022-10-06T04:32:36.736Z,53.15
2022-10-06T04:35:04.111Z,51.58
2022-10-06T04:37:31.308Z,51.72
2022-10-06T04:39:58.351Z,53.75
2022-10-06T04:42:25.864Z,56.42
2022-10-06T04:45:12.700Z,58.50
2022-10-06T04:48:13.685Z,57.40
2022-10-06T04:51:16.709Z,62.90
2022-10-06T04:53:57.518Z,69.78
2022-10-06T04:56:29.420Z,67.30
2022-10-06T04:58:59.134Z,63.75
2022-10-06T05:01:28.622Z,65.10
2022-10-06T05:03:58.479Z,65.70
2022-10-06T05:06:38.094Z,62.13
2022-10-06T05:09:11.073Z,62.25
2022-10-06T05:11:54.786Z,59.53
2022-10-06T05:15:02.315Z,61.15
2022-10-06T05:17:49.713Z,57.07
2022-10-06T05:20:30.296Z,57.45
2022-10-06T05:22:57.233Z,65.35
2022-10-06T05:25:24.916Z,63.67
2022-10-06T05:28:11.749Z,56.42
2022-10-06T05:31:25.838Z,52.83
2022-10-06T05:34:09.556Z,49.83
2022-10-06T05:36:37.046Z,59.95
2022-10-06T05:39:05.952Z,52.90
2022-10-06T05:42:08.889Z,50.35
2022-10-06T05:45:09.727Z,46.42
2022-10-06T05:48:10.718Z,46.83
2022-10-06T05:51:13.929Z,51.85
2022-10-06T05:53:54.613Z,48.55
2022-10-06T05:56:24.555Z,51.53
2022-10-06T05:58:54.268Z,56.72
2022-10-06T06:01:21.614Z,57.67
2022-10-06T06:03:54.668Z,57.05
2022-10-06T06:06:24.663Z,65.85
2022-10-06T06:09:28.750Z,68.72
2022-10-06T06:12:30.722Z,71.45
2022-10-06T06:15:38.827Z,70.70
2022-10-06T06:18:06.214Z,76.63
2022-10-06T06:20:53.747Z,75.18
2022-10-06T06:23:45.070Z,76.75
2022-10-06T06:26:19.122Z,75.80
2022-10-06T06:28:51.126Z,78.82
2022-10-06T06:31:23.204Z,74.57
2022-10-06T06:33:52.951Z,76.22
2022-10-06T06:36:21.147Z,75.85
2022-10-06T06:38:51.817Z,75.93
2022-10-06T06:41:42.761Z,72.53
2022-10-06T06:44:59.766Z,73.90
2022-10-06T06:48:19.764Z,72.65
2022-10-06T06:51:00.270Z,73.32
2022-10-06T06:53:31.405Z,69.32
2022-10-06T06:56:01.139Z,73.03
2022-10-06T06:58:31.718Z,72.93
2022-10-06T07:01:14.195Z,69.68
2022-10-06T07:03:58.664Z,70.70
2022-10-06T07:06:31.342Z,69.38
2022-10-06T07:09:00.904Z,70.35
2022-10-06T07:11:33.765Z,72.65
2022-10-06T07:14:24.827Z,71.90
2022-10-06T07:17:45.794Z,70.60
2022-10-06T07:21:06.780Z,69.07
2022-10-06T07:24:25.810Z,71.95
2022-10-06T07:26:52.772Z,72.20
2022-10-06T07:29:39.791Z,70.18
2022-10-06T07:32:37.796Z,70.93
2022-10-06T07:35:39.069Z,68.03
2022-10-06T07:38:25.622Z,67.38
2022-10-06T07:41:14.932Z,68.70
2022-10-06T07:44:07.959Z,66.78
2022-10-06T07:46:52.879Z,67.47
2022-10-06T07:49:53.797Z,67.60
2022-10-06T07:52:37.082Z,64.35
2022-10-06T07:55:05.039Z,64.88
2022-10-06T07:57:45.819Z,60.80
2022-10-06T08:00:15.893Z,57.40
2022-10-06T08:02:42.786Z,62.42
2022-10-06T08:05:10.015Z,54.78
2022-10-06T08:07:36.881Z,57.78
2022-10-06T08:10:24.974Z,55.95
2022-10-06T08:13:25.811Z,57.83
2022-10-06T08:16:33.168Z,59.58
2022-10-06T08:19:14.625Z,58.63
2022-10-06T08:21:41.559Z,60.67
2022-10-06T08:24:09.851Z,64.15
2022-10-06T08:26:36.769Z,62.65
2022-10-06T08:29:23.835Z,65.95
2022-10-06T08:32:04.431Z,66.47
2022-10-06T08:34:52.055Z,65.40
2022-10-06T08:37:32.392Z,68.38
2022-10-06T08:39:59.252Z,71.95
2022-10-06T08:42:37.498Z,73.93
2022-10-06T08:45:37.668Z,74.00
2022-10-06T08:48:26.908Z,76.05
2022-10-06T08:51:20.679Z,78.07
2022-10-06T08:54:02.621Z,72.87
2022-10-06T08:56:39.752Z,78.22
2022-10-06T08:59:09.869Z,78.72
2022-10-06T09:01:47.701Z,88.15
2022-10-06T09:04:28.899Z,85.70
2022-10-06T09:07:16.283Z,83.05
2022-10-06T09:10:05.907Z,84.50
2022-10-06T09:13:03.895Z,86.63
2022-10-06T09:15:56.641Z,86.32
2022-10-06T09:18:49.831Z,84.45
2022-10-06T09:21:36.685Z,81.60
2022-10-06T09:24:55.893Z,80.45
2022-10-06T09:28:01.887Z,71.80
2022-10-06T09:30:43.393Z,67.63
2022-10-06T09:33:19.676Z,64.38
2022-10-06T09:36:09.146Z,59.60
2022-10-06T09:38:53.954Z,57.70
2022-10-06T09:41:41.033Z,59.85
2022-10-06T09:44:40.878Z,59.25
2022-10-06T09:47:36.417Z,58.80
2022-10-06T09:50:23.959Z,57.60
2022-10-06T09:53:03.615Z,56.85
2022-10-06T09:55:33.920Z,57.75
2022-10-06T09:58:01.537Z,56.47
2022-10-06T10:00:39.039Z,56.38
2022-10-06T10:03:25.876Z,56.03
2022-10-06T10:06:46.878Z,55.25
2022-10-06T10:09:29.143Z,52.92
2022-10-06T10:12:36.887Z,56.17
2022-10-06T10:15:20.419Z,54.00
2022-10-06T10:17:47.331Z,51.08
2022-10-06T10:20:40.869Z,56.08
2022-10-06T10:23:31.594Z,53.97
2022-10-06T10:26:05.498Z,51.47
2022-10-06T10:28:46.247Z,49.25
2022-10-06T10:31:16.134Z,45.40
2022-10-06T10:34:24.201Z,47.70
2022-10-06T10:37:32.895Z,44.05
2022-10-06T10:40:19.740Z,48.78
2022-10-06T10:42:56.642Z,47.37
2022-10-06T10:45:49.916Z,49.53
2022-10-06T10:49:14.888Z,47.85
2022-10-06T10:52:14.262Z,49.13
2022-10-06T10:54:44.647Z,48.08
2022-10-06T10:57:16.381Z,45.33
2022-10-06T11:00:04.051Z,48.05
2022-10-06T11:02:31.562Z,46.28
2022-10-06T11:05:05.328Z,46.60
2022-10-06T11:07:38.555Z,47.05
2022-10-06T11:10:17.282Z,44.77
2022-10-06T11:12:47.288Z,44.47
2022-10-06T11:15:55.958Z,46.47
2022-10-06T11:19:17.982Z,50.10
2022-10-06T11:22:26.504Z,49.05
2022-10-06T11:25:20.996Z,48.78
2022-10-06T11:28:07.823Z,48.85
2022-10-06T11:30:45.936Z,46.63
2022-10-06T11:33:26.526Z,46.45
2022-10-06T11:35:54.024Z,48.08
2022-10-06T11:38:20.984Z,48.97
2022-10-06T11:41:34.024Z,48.20
2022-10-06T11:44:29.310Z,46.45
2022-10-06T11:47:35.331Z,43.95
2022-10-06T11:50:53.028Z,47.35
2022-10-06T11:53:31.845Z,50.90
2022-10-06T11:56:17.339Z,49.58
2022-10-06T11:58:56.033Z,51.80
2022-10-06T12:01:31.545Z,50.25
2022-10-06T12:04:24.491Z,47.67
2022-10-06T12:07:25.985Z,47.58
2022-10-06T12:10:42.001Z,50.10
2022-10-06T12:17:05.591Z,49.20
2022-10-06T12:20:08.204Z,50.28
2022-10-06T12:22:49.552Z,47.35
2022-10-06T12:25:50.083Z,48.75
2022-10-06T12:28:40.971Z,46.47
2022-10-06T12:31:26.986Z,51.28
2022-10-06T12:33:54.005Z,43.40
2022-10-06T12:36:26.808Z,46.05
2022-10-06T12:39:20.804Z,45.13
2022-10-06T12:42:11.003Z,53.63
2022-10-06T12:45:11.984Z,48.90
2022-10-06T12:48:09.219Z,50.35
2022-10-06T12:51:18.002Z,45.53
2022-10-06T12:54:16.649Z,46.00
2022-10-06T12:56:56.817Z,45.95
2022-10-06T12:59:49.073Z,45.22
2022-10-06T13:02:30.757Z,45.67
2022-10-06T13:05:26.107Z,44.97
2022-10-06T13:08:21.333Z,42.08
2022-10-06T13:10:48.308Z,45.50
2022-10-06T13:13:24.438Z,44.03
2022-10-06T13:15:56.095Z,42.28
2022-10-06T13:18:43.022Z,43.67
2022-10-06T13:21:24.316Z,46.90
2022-10-06T13:23:52.183Z,45.78
2022-10-06T13:26:29.444Z,42.35
2022-10-06T13:29:00.784Z,46.15
2022-10-06T13:31:33.625Z,47.53
2022-10-06T13:34:06.104Z,45.63
2022-10-06T13:36:37.280Z,45.13
2022-10-06T13:39:12.346Z,43.58
2022-10-06T13:45:18.081Z,48.65
2022-10-06T13:48:25.052Z,44.90
2022-10-06T13:51:39.034Z,45.75
2022-10-06T13:54:34.591Z,46.25
2022-10-06T13:57:01.524Z,46.58
2022-10-06T13:59:51.021Z,46.85
2022-10-06T14:02:52.110Z,41.85
2022-10-06T14:05:39.804Z,41.85
2022-10-06T14:08:09.871Z,43.90
2022-10-06T14:11:27.040Z,43.95
2022-10-06T14:14:15.541Z,39.85
2022-10-06T14:16:48.897Z,40.83
2022-10-06T14:19:36.461Z,42.45
2022-10-06T14:22:05.621Z,44.30
2022-10-06T14:24:37.324Z,41.75
2022-10-06T14:27:07.224Z,40.65
2022-10-06T14:29:36.108Z,42.60
2022-10-06T14:32:10.517Z,40.85
2022-10-06T14:34:37.544Z,41.47
2022-10-06T14:37:05.839Z,42.42
2022-10-06T14:39:35.998Z,38.85
2022-10-06T14:42:02.929Z,40.00
2022-10-06T14:44:50.052Z,44.22
2022-10-06T14:47:52.073Z,42.03
2022-10-06T14:50:53.170Z,45.67
2022-10-06T14:53:54.076Z,39.72
2022-10-06T14:56:37.882Z,41.13
2022-10-06T14:59:26.103Z,38.58
2022-10-06T15:02:06.672Z,39.95
2022-10-06T15:04:33.840Z,40.58
2022-10-06T15:07:19.310Z,41.35
2022-10-06T15:09:46.378Z,40.50
2022-10-06T15:12:34.038Z,42.88
2022-10-06T15:15:28.223Z,44.42
2022-10-06T15:18:08.827Z,46.10
2022-10-06T15:20:35.889Z,44.53
2022-10-06T15:23:02.959Z,43.50
2022-10-06T15:25:48.415Z,42.15
2022-10-06T15:28:34.091Z,42.58
2022-10-06T15:31:01.781Z,41.85
2022-10-06T15:33:31.691Z,42.83
2022-10-06T15:36:15.893Z,42.17
